sensor_id;sensor_type;location;lat;lon;timestamp;pressure;altitude;pressure_sealevel;temperature;humidity
6343;BME280;3204;42.698;23.298;2022-07-01T00:01:56;94947.09;;;24.03;60.35
6343;BME280;3204;42.698;23.298;2022-07-01T00:04:22;94939.19;;;23.98;60.24
6343;BME280;3204;42.698;23.298;2022-07-01T00:06:54;94931.28;;;24.07;60.44
6343;BME280;3204;42.698;23.298;2022-07-01T00:09:20;94945.53;;;24.12;60.23
6343;BME280;3204;42.698;23.298;2022-07-01T00:11:46;94944.75;;;24.22;60.00
6343;BME280;3204;42.698;23.298;2022-07-01T00:14:12;94945.53;;;24.12;60.48
6343;BME280;3204;42.698;23.298;2022-07-01T00:16:38;94949.47;;;24.01;60.64
6343;BME280;3204;42.698;23.298;2022-07-01T00:19:04;94953.03;;;23.94;61.15
6343;BME280;3204;42.698;23.298;2022-07-01T00:21:30;94960.91;;;23.82;61.34
6343;BME280;3204;42.698;23.298;2022-07-01T00:23:56;94964.44;;;23.79;61.45
6343;BME280;3204;42.698;23.298;2022-07-01T00:26:21;94960.47;;;23.76;61.79
6343;BME280;3204;42.698;23.298;2022-07-01T00:28:47;94965.22;;;23.72;61.83
6343;BME280;3204;42.698;23.298;2022-07-01T00:31:12;94967.59;;;23.67;62.19
6343;BME280;3204;42.698;23.298;2022-07-01T00:33:38;94969.56;;;23.66;62.50
6343;BME280;3204;42.698;23.298;2022-07-01T00:36:04;94966.00;;;23.69;62.34
6343;BME280;3204;42.698;23.298;2022-07-01T00:38:29;94962.09;;;23.88;62.24
6343;BME280;3204;42.698;23.298;2022-07-01T00:40:55;94954.22;;;24.00;62.38
6343;BME280;3204;42.698;23.298;2022-07-01T00:43:21;94963.25;;;23.76;63.46
6343;BME280;3204;42.698;23.298;2022-07-01T00:45:50;94971.94;;;23.64;64.29
6343;BME280;3204;42.698;23.298;2022-07-01T00:48:17;94974.97;;;23.38;65.39
6343;BME280;3204;42.698;23.298;2022-07-01T00:50:44;94972.59;;;23.30;65.35
6343;BME280;3204;42.698;23.298;2022-07-01T00:53:11;94971.38;;;23.27;65.57
6343;BME280;3204;42.698;23.298;2022-07-01T00:55:37;94970.19;;;23.32;65.67
6343;BME280;3204;42.698;23.298;2022-07-01T00:58:03;94972.25;;;23.45;65.45
6343;BME280;3204;42.698;23.298;2022-07-01T01:00:28;94967.88;;;23.41;65.65
6343;BME280;3204;42.698;23.298;2022-07-01T01:02:54;94974.53;;;23.22;66.05
6343;BME280;3204;42.698;23.298;2022-07-01T01:05:20;94969.69;;;23.12;66.68
6343;BME280;3204;42.698;23.298;2022-07-01T01:07:49;94974.38;;;23.01;66.93
6343;BME280;3204;42.698;23.298;2022-07-01T01:10:16;94969.94;;;22.86;67.43
6343;BME280;3204;42.698;23.298;2022-07-01T01:12:42;94971.88;;;22.79;67.74
6343;BME280;3204;42.698;23.298;2022-07-01T01:15:07;94969.13;;;22.86;68.13
6343;BME280;3204;42.698;23.298;2022-07-01T01:17:33;94969.47;;;22.77;67.95
6343;BME280;3204;42.698;23.298;2022-07-01T01:19:59;94967.06;;;22.72;68.33
6343;BME280;3204;42.698;23.298;2022-07-01T01:22:24;94967.91;;;22.76;68.10
6343;BME280;3204;42.698;23.298;2022-07-01T01:24:50;94966.41;;;22.89;67.99
6343;BME280;3204;42.698;23.298;2022-07-01T01:27:16;94961.69;;;22.97;67.56
6343;BME280;3204;42.698;23.298;2022-07-01T01:29:42;94964.03;;;22.91;67.36
6343;BME280;3204;42.698;23.298;2022-07-01T01:32:08;94975.91;;;22.92;67.17
6343;BME280;3204;42.698;23.298;2022-07-01T01:34:35;94978.59;;;22.81;66.92
6343;BME280;3204;42.698;23.298;2022-07-01T01:37:02;94974.19;;;22.73;67.22
6343;BME280;3204;42.698;23.298;2022-07-01T01:39:28;94982.56;;;22.84;67.40
6343;BME280;3204;42.698;23.298;2022-07-01T01:41:54;94975.81;;;22.81;67.61
6343;BME280;3204;42.698;23.298;2022-07-01T01:44:20;94974.25;;;22.80;68.10
6343;BME280;3204;42.698;23.298;2022-07-01T01:46:45;94975.44;;;22.83;67.89
6343;BME280;3204;42.698;23.298;2022-07-01T01:49:11;94982.16;;;22.82;67.81
6343;BME280;3204;42.698;23.298;2022-07-01T01:51:37;94978.97;;;22.76;67.93
6343;BME280;3204;42.698;23.298;2022-07-01T01:54:03;94988.34;;;22.61;68.32
6343;BME280;3204;42.698;23.298;2022-07-01T01:56:29;94983.03;;;22.42;68.61
6343;BME280;3204;42.698;23.298;2022-07-01T01:58:56;94983.81;;;22.43;68.91
6343;BME280;3204;42.698;23.298;2022-07-01T02:01:21;94981.13;;;22.50;68.77
6343;BME280;3204;42.698;23.298;2022-07-01T02:03:48;94987.13;;;22.55;68.33
6343;BME280;3204;42.698;23.298;2022-07-01T02:06:15;94989.06;;;22.51;68.14
6343;BME280;3204;42.698;23.298;2022-07-01T02:08:41;94987.88;;;22.52;68.13
6343;BME280;3204;42.698;23.298;2022-07-01T02:11:08;94981.13;;;22.50;67.90
6343;BME280;3204;42.698;23.298;2022-07-01T02:13:34;94985.13;;;22.56;68.05
6343;BME280;3204;42.698;23.298;2022-07-01T02:16:00;94998.19;;;22.55;67.52
6343;BME280;3204;42.698;23.298;2022-07-01T02:18:26;95000.94;;;22.55;67.57
6343;BME280;3204;42.698;23.298;2022-07-01T02:20:52;94996.56;;;22.54;67.51
6343;BME280;3204;42.698;23.298;2022-07-01T02:23:17;94996.19;;;22.56;67.90
6343;BME280;3204;42.698;23.298;2022-07-01T02:25:43;94993.88;;;22.61;67.88
6343;BME280;3204;42.698;23.298;2022-07-01T02:28:09;94996.16;;;22.52;67.86
6343;BME280;3204;42.698;23.298;2022-07-01T02:30:35;94999.13;;;22.33;68.23
6343;BME280;3204;42.698;23.298;2022-07-01T02:33:06;95006.50;;;22.19;68.63
6343;BME280;3204;42.698;23.298;2022-07-01T02:35:33;95009.91;;;22.05;68.99
6343;BME280;3204;42.698;23.298;2022-07-01T02:37:59;95011.88;;;22.05;68.89
6343;BME280;3204;42.698;23.298;2022-07-01T02:40:25;95018.69;;;22.14;68.89
6343;BME280;3204;42.698;23.298;2022-07-01T02:42:51;95012.06;;;22.22;68.65
6343;BME280;3204;42.698;23.298;2022-07-01T02:45:16;95011.31;;;22.29;67.88
6343;BME280;3204;42.698;23.298;2022-07-01T02:47:42;95017.94;;;22.17;68.01
6343;BME280;3204;42.698;23.298;2022-07-01T02:50:10;95021.00;;;22.09;68.15
6343;BME280;3204;42.698;23.298;2022-07-01T02:52:37;95021.38;;;22.07;68.44
6343;BME280;3204;42.698;23.298;2022-07-01T02:55:04;95021.44;;;22.11;68.32
6343;BME280;3204;42.698;23.298;2022-07-01T02:57:30;95022.66;;;22.13;68.34
6343;BME280;3204;42.698;23.298;2022-07-01T02:59:56;95030.41;;;22.01;68.59
6343;BME280;3204;42.698;23.298;2022-07-01T03:02:22;95032.38;;;22.00;68.88
6343;BME280;3204;42.698;23.298;2022-07-01T03:04:49;95025.59;;;21.94;68.91
6343;BME280;3204;42.698;23.298;2022-07-01T03:07:15;95026.00;;;21.96;69.34
6343;BME280;3204;42.698;23.298;2022-07-01T03:09:41;95030.84;;;22.06;69.11
6343;BME280;3204;42.698;23.298;2022-07-01T03:12:07;95035.53;;;22.02;69.06
6343;BME280;3204;42.698;23.298;2022-07-01T03:15:15;95039.06;;;21.99;69.53
6343;BME280;3204;42.698;23.298;2022-07-01T03:17:46;95035.88;;;21.97;69.36
6343;BME280;3204;42.698;23.298;2022-07-01T03:20:13;95046.16;;;21.97;69.65
6343;BME280;3204;42.698;23.298;2022-07-01T03:22:39;95034.97;;;21.86;69.87
6343;BME280;3204;42.698;23.298;2022-07-01T03:25:06;95046.19;;;22.00;70.26
6343;BME280;3204;42.698;23.298;2022-07-01T03:27:33;95044.31;;;22.11;69.96
6343;BME280;3204;42.698;23.298;2022-07-01T03:29:59;95044.31;;;22.11;69.57
6343;BME280;3204;42.698;23.298;2022-07-01T03:32:24;95050.66;;;22.12;69.25
6343;BME280;3204;42.698;23.298;2022-07-01T03:34:51;95047.91;;;22.15;69.42
6343;BME280;3204;42.698;23.298;2022-07-01T03:37:18;95058.59;;;22.17;69.31
6343;BME280;3204;42.698;23.298;2022-07-01T03:39:44;95058.25;;;22.22;68.88
6343;BME280;3204;42.698;23.298;2022-07-01T03:42:10;95045.25;;;22.26;69.09
6343;BME280;3204;42.698;23.298;2022-07-01T03:44:36;95046.16;;;22.37;68.98
6343;BME280;3204;42.698;23.298;2022-07-01T03:47:03;95050.63;;;22.45;68.27
6343;BME280;3204;42.698;23.298;2022-07-01T03:49:30;95057.81;;;22.56;68.12
6343;BME280;3204;42.698;23.298;2022-07-01T03:51:56;95057.03;;;22.59;67.91
6343;BME280;3204;42.698;23.298;2022-07-01T03:54:21;95048.00;;;22.62;67.89
6343;BME280;3204;42.698;23.298;2022-07-01T03:56:59;95055.94;;;22.67;67.61
6343;BME280;3204;42.698;23.298;2022-07-01T03:59:25;95054.81;;;22.72;67.50
6343;BME280;3204;42.698;23.298;2022-07-01T04:01:54;95052.81;;;22.72;67.56
6343;BME280;3204;42.698;23.298;2022-07-01T04:04:21;95046.06;;;22.66;67.68
6343;BME280;3204;42.698;23.298;2022-07-01T04:06:47;95038.94;;;22.65;67.69
6343;BME280;3204;42.698;23.298;2022-07-01T04:09:14;95049.19;;;22.65;67.75
6343;BME280;3204;42.698;23.298;2022-07-01T04:11:41;95060.28;;;22.68;67.88
6343;BME280;3204;42.698;23.298;2022-07-01T04:14:07;95058.81;;;22.81;67.53
6343;BME280;3204;42.698;23.298;2022-07-01T04:16:32;95062.06;;;22.90;67.28
6343;BME280;3204;42.698;23.298;2022-07-01T04:18:58;95059.72;;;22.96;67.25
6343;BME280;3204;42.698;23.298;2022-07-01T04:21:23;95070.00;;;22.95;67.52
6343;BME280;3204;42.698;23.298;2022-07-01T04:24:08;95062.25;;;23.15;66.79
6343;BME280;3204;42.698;23.298;2022-07-01T04:26:34;95065.06;;;23.22;66.57
6343;BME280;3204;42.698;23.298;2022-07-01T04:29:00;95064.59;;;23.16;67.02
6343;BME280;3204;42.698;23.298;2022-07-01T04:31:26;95072.25;;;23.33;66.67
6343;BME280;3204;42.698;23.298;2022-07-01T04:33:51;95074.28;;;23.43;65.84
6343;BME280;3204;42.698;23.298;2022-07-01T04:36:17;95063.66;;;23.45;66.19
6343;BME280;3204;42.698;23.298;2022-07-01T04:38:43;95064.34;;;23.32;65.91
6343;BME280;3204;42.698;23.298;2022-07-01T04:41:08;95078.59;;;23.34;66.28
6343;BME280;3204;42.698;23.298;2022-07-01T04:43:52;95073.88;;;23.38;66.18
6343;BME280;3204;42.698;23.298;2022-07-01T04:46:18;95069.13;;;23.38;66.13
6343;BME280;3204;42.698;23.298;2022-07-01T04:48:43;95069.19;;;23.45;66.10
6343;BME280;3204;42.698;23.298;2022-07-01T04:51:09;95074.75;;;23.52;65.85
6343;BME280;3204;42.698;23.298;2022-07-01T04:53:34;95068.03;;;23.53;65.44
6343;BME280;3204;42.698;23.298;2022-07-01T04:56:00;95078.34;;;23.56;65.41
6343;BME280;3204;42.698;23.298;2022-07-01T04:58:26;95067.28;;;23.63;65.03
6343;BME280;3204;42.698;23.298;2022-07-01T05:00:52;95063.75;;;23.66;65.06
6343;BME280;3204;42.698;23.298;2022-07-01T05:03:17;95068.50;;;23.69;65.44
6343;BME280;3204;42.698;23.298;2022-07-01T05:05:43;95068.91;;;23.68;65.57
6343;BME280;3204;42.698;23.298;2022-07-01T05:08:08;95065.31;;;23.67;65.32
6343;BME280;3204;42.698;23.298;2022-07-01T05:10:34;95066.19;;;23.85;65.10
6343;BME280;3204;42.698;23.298;2022-07-01T05:12:59;95074.59;;;23.96;64.42
6343;BME280;3204;42.698;23.298;2022-07-01T05:15:25;95071.44;;;24.04;63.80
6343;BME280;3204;42.698;23.298;2022-07-01T05:17:50;95073.41;;;23.97;64.67
6343;BME280;3204;42.698;23.298;2022-07-01T05:20:34;95069.03;;;23.96;64.80
6343;BME280;3204;42.698;23.298;2022-07-01T05:23:18;95071.44;;;24.04;64.47
6343;BME280;3204;42.698;23.298;2022-07-01T05:25:44;95067.09;;;24.10;64.07
6343;BME280;3204;42.698;23.298;2022-07-01T05:28:10;95067.94;;;24.21;63.49
6343;BME280;3204;42.698;23.298;2022-07-01T05:30:35;95069.91;;;24.24;63.71
6343;BME280;3204;42.698;23.298;2022-07-01T05:33:01;95073.09;;;24.30;63.52
6343;BME280;3204;42.698;23.298;2022-07-01T05:35:26;95067.56;;;24.37;63.47
6343;BME280;3204;42.698;23.298;2022-07-01T05:37:51;95073.91;;;24.44;63.10
6343;BME280;3204;42.698;23.298;2022-07-01T05:40:17;95075.13;;;24.50;62.88
6343;BME280;3204;42.698;23.298;2022-07-01T05:42:42;95075.56;;;24.66;62.45
6343;BME280;3204;42.698;23.298;2022-07-01T05:45:08;95070.03;;;24.77;61.92
6343;BME280;3204;42.698;23.298;2022-07-01T05:47:34;95072.41;;;24.75;62.10
6343;BME280;3204;42.698;23.298;2022-07-01T05:49:59;95075.19;;;24.64;62.05
6343;BME280;3204;42.698;23.298;2022-07-01T05:52:25;95066.84;;;24.68;62.48
6343;BME280;3204;42.698;23.298;2022-07-01T05:54:50;95069.63;;;24.82;61.86
6343;BME280;3204;42.698;23.298;2022-07-01T05:57:16;95074.78;;;24.90;61.92
6343;BME280;3204;42.698;23.298;2022-07-01T05:59:41;95074.78;;;24.90;61.34
6343;BME280;3204;42.698;23.298;2022-07-01T06:02:07;95066.88;;;24.82;61.50
6343;BME280;3204;42.698;23.298;2022-07-01T06:04:32;95074.78;;;24.76;61.94
6343;BME280;3204;42.698;23.298;2022-07-01T06:06:59;95064.88;;;24.75;61.35
6343;BME280;3204;42.698;23.298;2022-07-01T06:09:24;95075.59;;;24.73;61.80
6343;BME280;3204;42.698;23.298;2022-07-01T06:11:50;95071.63;;;24.81;62.04
6343;BME280;3204;42.698;23.298;2022-07-01T06:14:16;95064.88;;;24.93;61.97
6343;BME280;3204;42.698;23.298;2022-07-01T06:16:41;95068.06;;;24.98;62.34
6343;BME280;3204;42.698;23.298;2022-07-01T06:19:07;95075.16;;;25.20;61.82
6343;BME280;3204;42.698;23.298;2022-07-01T06:21:32;95065.28;;;25.26;61.36
6343;BME280;3204;42.698;23.298;2022-07-01T06:23:58;95080.69;;;25.48;60.13
6343;BME280;3204;42.698;23.298;2022-07-01T06:26:24;95079.91;;;25.55;59.94
6343;BME280;3204;42.698;23.298;2022-07-01T06:28:50;95079.06;;;25.65;59.83
6343;BME280;3204;42.698;23.298;2022-07-01T06:31:15;95081.03;;;25.75;59.37
6343;BME280;3204;42.698;23.298;2022-07-01T06:33:41;95075.44;;;25.85;58.83
6343;BME280;3204;42.698;23.298;2022-07-01T06:36:06;95075.03;;;25.94;58.86
6343;BME280;3204;42.698;23.298;2022-07-01T06:38:32;95078.56;;;26.08;59.29
6343;BME280;3204;42.698;23.298;2022-07-01T06:40:57;95078.13;;;26.17;58.11
6343;BME280;3204;42.698;23.298;2022-07-01T06:43:42;95072.81;;;26.40;58.68
6343;BME280;3204;42.698;23.298;2022-07-01T06:46:08;95079.50;;;26.53;57.98
6343;BME280;3204;42.698;23.298;2022-07-01T06:48:34;95074.25;;;26.69;57.39
6343;BME280;3204;42.698;23.298;2022-07-01T06:51:01;95076.53;;;26.84;56.03
6343;BME280;3204;42.698;23.298;2022-07-01T06:53:26;95065.03;;;26.79;56.07
6343;BME280;3204;42.698;23.298;2022-07-01T06:55:52;95072.44;;;26.99;55.83
6343;BME280;3204;42.698;23.298;2022-07-01T06:58:17;95072.63;;;27.26;55.64
6343;BME280;3204;42.698;23.298;2022-07-01T07:00:43;95066.25;;;27.29;54.86
6343;BME280;3204;42.698;23.298;2022-07-01T07:03:09;95073.91;;;27.14;54.69
6343;BME280;3204;42.698;23.298;2022-07-01T07:05:34;95065.84;;;27.31;54.56
6343;BME280;3204;42.698;23.298;2022-07-01T07:08:00;95077.75;;;27.35;54.38
6343;BME280;3204;42.698;23.298;2022-07-01T07:10:25;95077.22;;;27.47;53.65
6343;BME280;3204;42.698;23.298;2022-07-01T07:12:50;95069.06;;;27.66;53.74
6343;BME280;3204;42.698;23.298;2022-07-01T07:15:16;95080.81;;;27.88;53.70
6343;BME280;3204;42.698;23.298;2022-07-01T07:17:42;95085.19;;;28.19;53.12
6343;BME280;3204;42.698;23.298;2022-07-01T07:20:08;95084.66;;;28.31;52.00
6343;BME280;3204;42.698;23.298;2022-07-01T07:22:33;95082.16;;;28.40;51.45
6343;BME280;3204;42.698;23.298;2022-07-01T07:24:59;95084.34;;;28.55;51.57
6343;BME280;3204;42.698;23.298;2022-07-01T07:27:25;95086.16;;;28.69;51.12
6343;BME280;3204;42.698;23.298;2022-07-01T07:29:50;95083.91;;;28.57;50.97
6343;BME280;3204;42.698;23.298;2022-07-01T07:32:16;95081.66;;;28.75;51.06
6343;BME280;3204;42.698;23.298;2022-07-01T07:34:41;95077.41;;;28.93;50.52
6343;BME280;3204;42.698;23.298;2022-07-01T07:37:07;95083.97;;;29.10;50.67
6343;BME280;3204;42.698;23.298;2022-07-01T07:39:33;95084.16;;;29.22;49.66
6343;BME280;3204;42.698;23.298;2022-07-01T07:41:58;95078.72;;;29.35;49.22
6343;BME280;3204;42.698;23.298;2022-07-01T07:44:24;95078.84;;;29.51;49.20
6343;BME280;3204;42.698;23.298;2022-07-01T07:46:49;95073.69;;;29.72;48.17
6343;BME280;3204;42.698;23.298;2022-07-01T07:49:15;95068.38;;;29.97;48.09
6343;BME280;3204;42.698;23.298;2022-07-01T07:51:40;95071.53;;;30.22;47.94
6343;BME280;3204;42.698;23.298;2022-07-01T07:54:06;95066.69;;;30.42;47.32
6343;BME280;3204;42.698;23.298;2022-07-01T07:56:32;95078.16;;;30.67;46.18
6343;BME280;3204;42.698;23.298;2022-07-01T07:58:57;95069.34;;;30.85;45.94
6343;BME280;3204;42.698;23.298;2022-07-01T08:01:23;95075.03;;;30.81;46.88
6343;BME280;3204;42.698;23.298;2022-07-01T08:03:49;95068.75;;;30.93;46.32
6343;BME280;3204;42.698;23.298;2022-07-01T08:06:14;95063.69;;;31.04;45.76
6343;BME280;3204;42.698;23.298;2022-07-01T08:08:40;95061.41;;;31.15;45.47
6343;BME280;3204;42.698;23.298;2022-07-01T08:11:05;95068.66;;;31.13;45.82
6343;BME280;3204;42.698;23.298;2022-07-01T08:13:31;95060.97;;;31.17;44.88
6343;BME280;3204;42.698;23.298;2022-07-01T08:15:57;95063.97;;;31.26;44.32
6343;BME280;3204;42.698;23.298;2022-07-01T08:18:23;95057.22;;;31.23;44.29
6343;BME280;3204;42.698;23.298;2022-07-01T08:20:49;95049.53;;;31.27;44.73
6343;BME280;3204;42.698;23.298;2022-07-01T08:23:20;95057.31;;;31.36;43.86
6343;BME280;3204;42.698;23.298;2022-07-01T08:25:47;95045.84;;;31.30;43.61
6343;BME280;3204;42.698;23.298;2022-07-01T08:28:13;95049.06;;;31.45;44.07
6343;BME280;3204;42.698;23.298;2022-07-01T08:30:39;95056.47;;;31.67;43.93
6343;BME280;3204;42.698;23.298;2022-07-01T08:33:05;95045.50;;;31.89;43.33
6343;BME280;3204;42.698;23.298;2022-07-01T08:35:31;95041.84;;;32.04;43.98
6343;BME280;3204;42.698;23.298;2022-07-01T08:37:56;95055.03;;;32.20;43.69
6343;BME280;3204;42.698;23.298;2022-07-01T08:40:26;95047.94;;;32.15;42.09
6343;BME280;3204;42.698;23.298;2022-07-01T08:42:57;95047.41;;;32.20;42.36
6343;BME280;3204;42.698;23.298;2022-07-01T08:45:25;95044.25;;;32.18;42.60
6343;BME280;3204;42.698;23.298;2022-07-01T08:47:53;95051.97;;;32.30;42.59
6343;BME280;3204;42.698;23.298;2022-07-01T08:50:20;95039.94;;;32.42;42.40
6343;BME280;3204;42.698;23.298;2022-07-01T08:52:46;95046.16;;;32.50;42.49
6343;BME280;3204;42.698;23.298;2022-07-01T08:55:12;95051.31;;;32.51;41.81
6343;BME280;3204;42.698;23.298;2022-07-01T08:57:37;95047.47;;;32.33;40.81
6343;BME280;3204;42.698;23.298;2022-07-01T09:00:04;95046.56;;;32.36;41.76
6343;BME280;3204;42.698;23.298;2022-07-01T09:05:18;95034.03;;;32.78;41.22
6343;BME280;3204;42.698;23.298;2022-07-01T09:07:43;95041.72;;;32.90;40.72
6343;BME280;3204;42.698;23.298;2022-07-01T09:10:16;95041.47;;;33.09;41.39
6343;BME280;3204;42.698;23.298;2022-07-01T09:12:46;95051.13;;;33.21;39.79
6343;BME280;3204;42.698;23.298;2022-07-01T09:15:41;95046.63;;;33.23;40.20
6343;BME280;3204;42.698;23.298;2022-07-01T09:18:13;95039.91;;;32.96;40.37
6343;BME280;3204;42.698;23.298;2022-07-01T09:20:43;95043.41;;;33.00;40.80
6343;BME280;3204;42.698;23.298;2022-07-01T09:23:11;95045.66;;;32.92;39.60
6343;BME280;3204;42.698;23.298;2022-07-01T09:25:48;95041.59;;;33.06;38.81
6343;BME280;3204;42.698;23.298;2022-07-01T09:28:17;95035.06;;;33.34;39.12
6343;BME280;3204;42.698;23.298;2022-07-01T09:30:45;95042.53;;;33.62;38.61
6343;BME280;3204;42.698;23.298;2022-07-01T09:33:16;95041.13;;;33.91;38.13
6343;BME280;3204;42.698;23.298;2022-07-01T09:35:43;95035.97;;;34.11;38.63
6343;BME280;3204;42.698;23.298;2022-07-01T09:38:14;95032.13;;;33.84;36.60
6343;BME280;3204;42.698;23.298;2022-07-01T09:41:03;95034.72;;;34.12;36.38
6343;BME280;3204;42.698;23.298;2022-07-01T09:43:32;95016.72;;;34.31;37.84
6343;BME280;3204;42.698;23.298;2022-07-01T09:46:04;95022.88;;;34.39;35.88
6343;BME280;3204;42.698;23.298;2022-07-01T09:51:00;95029.72;;;33.95;36.08
6343;BME280;3204;42.698;23.298;2022-07-01T09:53:26;95017.88;;;34.00;36.31
6343;BME280;3204;42.698;23.298;2022-07-01T09:55:52;95016.25;;;34.11;34.93
6343;BME280;3204;42.698;23.298;2022-07-01T09:58:18;95007.97;;;34.29;35.41
6343;BME280;3204;42.698;23.298;2022-07-01T10:00:44;95009.13;;;34.41;34.82
6343;BME280;3204;42.698;23.298;2022-07-01T10:03:10;95009.16;;;34.50;35.12
6343;BME280;3204;42.698;23.298;2022-07-01T10:05:44;95005.41;;;34.53;28.75
6343;BME280;3204;42.698;23.298;2022-07-01T10:14:07;95017.22;;;34.91;30.48
6343;BME280;3204;42.698;23.298;2022-07-01T10:16:35;95017.94;;;35.13;30.65
6343;BME280;3204;42.698;23.298;2022-07-01T10:21:46;95001.97;;;34.79;30.26
6343;BME280;3204;42.698;23.298;2022-07-01T10:24:12;94997.72;;;35.14;31.13
6343;BME280;3204;42.698;23.298;2022-07-01T10:26:38;95002.97;;;35.34;30.82
6343;BME280;3204;42.698;23.298;2022-07-01T10:29:04;95003.78;;;34.95;29.45
6343;BME280;3204;42.698;23.298;2022-07-01T10:31:36;94996.56;;;34.94;28.41
6343;BME280;3204;42.698;23.298;2022-07-01T10:34:03;94997.47;;;34.91;29.20
6343;BME280;3204;42.698;23.298;2022-07-01T10:36:31;94981.69;;;35.02;28.82
6343;BME280;3204;42.698;23.298;2022-07-01T10:41:32;94986.06;;;35.52;29.05
6343;BME280;3204;42.698;23.298;2022-07-01T10:44:00;94984.50;;;35.51;26.17
6343;BME280;3204;42.698;23.298;2022-07-01T10:46:56;94974.16;;;35.57;28.11
6343;BME280;3204;42.698;23.298;2022-07-01T10:52:04;94960.84;;;35.84;27.23
6343;BME280;3204;42.698;23.298;2022-07-01T10:54:45;94962.25;;;35.98;28.24
6343;BME280;3204;42.698;23.298;2022-07-01T10:57:20;94967.44;;;35.72;26.99
6343;BME280;3204;42.698;23.298;2022-07-01T11:05:03;94969.63;;;35.11;29.79
6343;BME280;3204;42.698;23.298;2022-07-01T11:07:31;94971.56;;;35.23;28.58
6343;BME280;3204;42.698;23.298;2022-07-01T11:09:58;94970.38;;;35.42;28.27
6343;BME280;3204;42.698;23.298;2022-07-01T11:12:24;94968.25;;;35.15;28.74
6343;BME280;3204;42.698;23.298;2022-07-01T11:14:51;94966.59;;;35.27;27.04
6343;BME280;3204;42.698;23.298;2022-07-01T11:17:19;94967.22;;;35.31;27.32
6343;BME280;3204;42.698;23.298;2022-07-01T11:19:51;94968.09;;;35.19;26.92
6343;BME280;3204;42.698;23.298;2022-07-01T11:22:32;94960.59;;;35.25;27.03
6343;BME280;3204;42.698;23.298;2022-07-01T11:25:03;94951.88;;;35.59;27.92
6343;BME280;3204;42.698;23.298;2022-07-01T11:27:29;94956.28;;;35.87;27.23
6343;BME280;3204;42.698;23.298;2022-07-01T11:29:58;94954.41;;;35.93;27.38
6343;BME280;3204;42.698;23.298;2022-07-01T11:32:34;94944.34;;;35.65;29.77
6343;BME280;3204;42.698;23.298;2022-07-01T11:35:01;94947.47;;;35.49;29.72
6343;BME280;3204;42.698;23.298;2022-07-01T11:37:28;94942.66;;;35.01;29.11
6343;BME280;3204;42.698;23.298;2022-07-01T11:40:14;94946.38;;;34.80;29.58
6343;BME280;3204;42.698;23.298;2022-07-01T11:42:41;94946.41;;;34.58;29.90
6343;BME280;3204;42.698;23.298;2022-07-01T11:45:07;94942.88;;;34.76;29.45
6343;BME280;3204;42.698;23.298;2022-07-01T11:47:33;94946.50;;;34.76;28.53
6343;BME280;3204;42.698;23.298;2022-07-01T11:49:59;94943.41;;;34.83;30.40
6343;BME280;3204;42.698;23.298;2022-07-01T11:52:26;94936.66;;;34.81;28.62
6343;BME280;3204;42.698;23.298;2022-07-01T11:54:54;94926.63;;;34.80;29.22
6343;BME280;3204;42.698;23.298;2022-07-01T11:57:22;94927.44;;;34.89;28.18
6343;BME280;3204;42.698;23.298;2022-07-01T11:59:50;94937.75;;;34.83;26.95
6343;BME280;3204;42.698;23.298;2022-07-01T12:02:18;94928.94;;;34.72;26.82
6343;BME280;3204;42.698;23.298;2022-07-01T12:04:45;94932.88;;;34.44;27.43
6343;BME280;3204;42.698;23.298;2022-07-01T12:07:13;94924.06;;;34.73;28.06
6343;BME280;3204;42.698;23.298;2022-07-01T12:09:39;94921.97;;;34.95;27.76
6343;BME280;3204;42.698;23.298;2022-07-01T12:12:05;94920.13;;;35.10;28.06
6343;BME280;3204;42.698;23.298;2022-07-01T12:14:34;94917.75;;;35.08;28.17
6343;BME280;3204;42.698;23.298;2022-07-01T12:17:05;94914.78;;;35.03;28.81
6343;BME280;3204;42.698;23.298;2022-07-01T12:19:39;94915.94;;;34.75;29.66
6343;BME280;3204;42.698;23.298;2022-07-01T12:22:08;94912.94;;;34.69;30.19
6343;BME280;3204;42.698;23.298;2022-07-01T12:24:33;94908.50;;;34.59;30.30
6343;BME280;3204;42.698;23.298;2022-07-01T12:32:04;94910.91;;;34.09;29.80
6343;BME280;3204;42.698;23.298;2022-07-01T12:37:18;94908.69;;;34.65;30.52
6343;BME280;3204;42.698;23.298;2022-07-01T12:39:53;94897.47;;;34.83;28.87
6343;BME280;3204;42.698;23.298;2022-07-01T12:42:33;94910.75;;;34.73;28.87
6343;BME280;3204;42.698;23.298;2022-07-01T12:45:04;94903.56;;;34.72;28.65
6343;BME280;3204;42.698;23.298;2022-07-01T12:47:37;94901.91;;;34.93;27.29
6343;BME280;3204;42.698;23.298;2022-07-01T12:52:43;94907.72;;;34.98;28.29
6343;BME280;3204;42.698;23.298;2022-07-01T12:55:16;94900.69;;;34.63;26.06
6343;BME280;3204;42.698;23.298;2022-07-01T12:57:43;94897.16;;;34.41;26.95
6343;BME280;3204;42.698;23.298;2022-07-01T13:00:09;94897.38;;;33.95;26.33
6343;BME280;3204;42.698;23.298;2022-07-01T13:02:34;94902.94;;;33.64;26.66
6343;BME280;3204;42.698;23.298;2022-07-01T13:05:00;94899.25;;;33.76;28.13
6343;BME280;3204;42.698;23.298;2022-07-01T13:07:25;94907.34;;;33.31;32.92
6343;BME280;3204;42.698;23.298;2022-07-01T13:09:51;94892.72;;;33.24;35.06
6343;BME280;3204;42.698;23.298;2022-07-01T13:12:16;94887.22;;;33.20;35.18
6343;BME280;3204;42.698;23.298;2022-07-01T13:14:42;94891.72;;;33.30;35.35
6343;BME280;3204;42.698;23.298;2022-07-01T13:17:09;94888.06;;;33.42;35.34
6343;BME280;3204;42.698;23.298;2022-07-01T13:19:34;94906.13;;;33.54;34.37
6343;BME280;3204;42.698;23.298;2022-07-01T13:22:02;94889.19;;;33.88;34.87
6343;BME280;3204;42.698;23.298;2022-07-01T13:24:27;94891.13;;;33.78;35.10
6343;BME280;3204;42.698;23.298;2022-07-01T13:26:53;94881.00;;;34.02;33.43
6343;BME280;3204;42.698;23.298;2022-07-01T13:29:18;94897.28;;;34.07;33.70
6343;BME280;3204;42.698;23.298;2022-07-01T13:31:44;94885.22;;;34.28;33.22
6343;BME280;3204;42.698;23.298;2022-07-01T13:34:10;94888.22;;;34.34;32.74
6343;BME280;3204;42.698;23.298;2022-07-01T13:36:35;94884.66;;;33.90;33.05
6343;BME280;3204;42.698;23.298;2022-07-01T13:39:01;94883.09;;;33.89;33.52
6343;BME280;3204;42.698;23.298;2022-07-01T13:41:26;94877.47;;;34.20;33.74
6343;BME280;3204;42.698;23.298;2022-07-01T13:43:52;94883.25;;;34.16;33.10
6343;BME280;3204;42.698;23.298;2022-07-01T13:46:17;94889.19;;;34.18;33.45